Time;durP1;ratioP1;P1;durP2;ratioP2;P2;SDS_P1;SDS_P2;PMS_P1;PMS_P2;Temp;Humidity;BMP_temperature;BMP_pressure;BME280_temperature;BME280_humidity;BME280_pressure;Samples;Min_cycle;Max_cycle;Signal;HPM_P1;HPM_P2
2021/10/01 00:02:03;;;;;;;3.65;1.00;;;;;;;10.56;87.99;101922.78;4957095;28;20519;-80
2021/10/01 00:04:29;;;;;;;6.30;1.60;;;;;;;10.56;87.73;101925.41;4981000;28;20037;-79
2021/10/01 00:06:54;;;;;;;6.82;1.30;;;;;;;10.59;89.23;101913.84;4957829;28;20039;-80
2021/10/01 00:09:20;;;;;;;4.68;1.60;;;;;;;10.57;88.71;101921.84;4962078;28;20045;-79
2021/10/01 00:11:54;;;;;;;6.70;1.38;;;;;;;10.60;87.26;101920.75;4958403;28;20408;-80
2021/10/01 00:14:25;;;;;;;6.70;1.08;;;;;;;10.61;87.19;101915.38;4977968;28;20046;-79
2021/10/01 00:16:52;;;;;;;4.95;1.15;;;;;;;10.68;85.76;101913.97;4961099;28;20030;-81
2021/10/01 00:19:18;;;;;;;4.30;1.15;;;;;;;10.68;86.37;101910.50;4973129;28;20555;-79
2021/10/01 00:21:44;;;;;;;4.32;1.20;;;;;;;10.67;86.44;101906.22;4961932;28;20032;-78
2021/10/01 00:24:10;;;;;;;4.20;1.00;;;;;;;10.67;86.72;101899.16;4977166;28;20022;-77
2021/10/01 00:26:37;;;;;;;8.63;1.80;;;;;;;10.71;86.30;101900.59;4968947;28;20067;-79
2021/10/01 00:29:04;;;;;;;6.20;1.08;;;;;;;10.68;86.61;101897.38;4986766;28;20038;-78
2021/10/01 00:31:30;;;;;;;8.50;1.42;;;;;;;10.70;85.95;101900.75;4993339;28;20127;-77
2021/10/01 00:33:56;;;;;;;7.45;1.40;;;;;;;10.71;85.80;101894.53;4993523;28;20069;-79
2021/10/01 00:36:22;;;;;;;8.38;1.45;;;;;;;10.69;85.76;101893.81;4993720;28;20117;-78
2021/10/01 00:38:48;;;;;;;3.95;1.30;;;;;;;10.72;85.77;101893.56;4977639;28;20034;-78
2021/10/01 00:41:13;;;;;;;4.30;1.40;;;;;;;10.73;85.39;101889.16;4978344;28;20030;-80
2021/10/01 00:43:39;;;;;;;5.50;1.23;;;;;;;10.79;86.31;101881.63;4983529;28;20035;-81
2021/10/01 00:46:04;;;;;;;6.72;1.30;;;;;;;10.78;86.17;101869.47;4993080;28;20034;-79
2021/10/01 00:48:29;;;;;;;7.32;1.00;;;;;;;10.74;86.13;101875.06;4994419;28;20056;-77
2021/10/01 00:50:56;;;;;;;4.00;1.10;;;;;;;10.69;85.71;101854.44;4977358;28;20046;-80
2021/10/01 00:53:22;;;;;;;6.05;1.38;;;;;;;10.69;87.40;101864.94;4960919;28;20038;-79
2021/10/01 00:55:48;;;;;;;1.88;0.90;;;;;;;10.65;87.00;101860.91;4977233;28;20034;-80
2021/10/01 00:58:14;;;;;;;6.57;1.20;;;;;;;10.71;86.02;101863.03;4961323;28;20041;-79
2021/10/01 01:01:24;;;;;;;3.75;1.60;;;;;;;10.64;86.63;101865.31;4961012;28;20123;-80
2021/10/01 01:03:25;;;;;;;4.38;1.02;;;;;;;10.67;86.88;101864.22;4976300;28;20756;-78
2021/10/01 01:06:10;;;;;;;4.10;1.13;;;;;;;10.62;86.42;101869.81;4977561;28;20120;-81
2021/10/01 01:08:47;;;;;;;4.00;1.10;;;;;;;10.60;87.64;101856.00;4945988;28;20049;-78
2021/10/01 01:11:22;;;;;;;4.40;1.00;;;;;;;10.66;87.76;101847.66;4962014;28;20500;-78
2021/10/01 01:14:12;;;;;;;5.28;1.10;;;;;;;10.67;87.64;101846.69;4961600;28;20043;-81
2021/10/01 01:16:42;;;;;;;7.63;1.20;;;;;;;10.64;87.28;101839.06;4967742;28;20042;-82
2021/10/01 01:19:13;;;;;;;5.47;1.25;;;;;;;10.63;87.17;101839.19;4977495;28;20046;-80
2021/10/01 01:21:53;;;;;;;6.53;1.43;;;;;;;10.66;86.49;101842.41;4979573;28;20018;-78
2021/10/01 01:24:40;;;;;;;5.63;1.20;;;;;;;10.68;85.80;101847.50;4968598;28;20302;-80
2021/10/01 01:27:26;;;;;;;5.30;1.15;;;;;;;10.69;86.89;101844.78;4977218;28;20062;-78
2021/10/01 01:30:04;;;;;;;7.45;1.30;;;;;;;10.65;86.78;101837.28;4960438;28;20606;-79
2021/10/01 01:32:33;;;;;;;2.67;0.90;;;;;;;10.61;86.75;101838.47;4977142;28;20041;-79
2021/10/01 01:35:05;;;;;;;2.80;1.00;;;;;;;10.68;86.12;101848.38;4960219;28;20042;-79
2021/10/01 01:38:00;;;;;;;4.88;0.95;;;;;;;10.62;86.63;101835.72;4976525;28;20034;-81
2021/10/01 01:40:29;;;;;;;4.90;1.42;;;;;;;10.64;86.31;101840.84;4924680;28;20054;-81
2021/10/01 01:42:57;;;;;;;4.32;1.50;;;;;;;10.67;86.38;101838.00;4960165;28;20030;-79
2021/10/01 01:45:24;;;;;;;2.55;0.95;;;;;;;10.54;85.94;101845.16;4973879;28;20038;-79
2021/10/01 01:47:51;;;;;;;4.47;1.17;;;;;;;10.60;85.40;101835.00;4960056;28;20034;-79
2021/10/01 01:50:18;;;;;;;4.50;0.93;;;;;;;10.63;86.00;101836.56;4960432;28;20050;-79
2021/10/01 01:52:44;;;;;;;4.20;1.00;;;;;;;10.60;85.60;101831.56;4952631;28;20042;-78
2021/10/01 01:55:13;;;;;;;3.97;1.13;;;;;;;10.55;85.97;101826.69;4978488;28;20048;-77
2021/10/01 01:57:41;;;;;;;2.13;0.90;;;;;;;10.59;86.38;101830.72;4976270;28;20089;-78
2021/10/01 02:00:08;;;;;;;3.63;1.00;;;;;;;10.59;87.18;101824.66;4992627;28;20484;-77
2021/10/01 02:02:49;;;;;;;7.65;1.30;;;;;;;10.50;87.00;101813.91;4978172;28;20034;-79
2021/10/01 02:05:18;;;;;;;5.65;1.30;;;;;;;10.54;87.01;101816.28;4992264;28;20034;-78
2021/10/01 02:07:46;;;;;;;5.10;1.15;;;;;;;10.50;86.39;101808.66;4992223;28;20085;-78
2021/10/01 02:10:13;;;;;;;4.00;0.95;;;;;;;10.51;86.78;101807.72;4976647;28;20042;-78
2021/10/01 02:12:40;;;;;;;2.80;0.90;;;;;;;10.56;87.22;101803.88;4976286;28;20034;-78
2021/10/01 02:15:09;;;;;;;8.07;1.25;;;;;;;10.47;87.87;101795.78;4976243;28;20050;-77
2021/10/01 02:17:37;;;;;;;4.85;0.95;;;;;;;10.48;87.25;101796.63;4959548;28;20049;-79
2021/10/01 02:20:06;;;;;;;4.40;1.00;;;;;;;10.56;86.72;101796.03;4959325;28;20059;-78
2021/10/01 02:22:33;;;;;;;5.38;1.00;;;;;;;10.57;85.21;101795.91;4975840;28;20127;-77
2021/10/01 02:24:59;;;;;;;5.05;0.90;;;;;;;10.57;85.75;101795.03;4975384;28;20026;-81
2021/10/01 02:27:45;;;;;;;3.13;1.00;;;;;;;10.60;85.01;101795.66;4975033;28;20038;-77
2021/10/01 02:30:15;;;;;;;2.13;0.95;;;;;;;10.51;86.31;101791.97;4975890;28;20037;-79
2021/10/01 02:33:02;;;;;;;4.93;1.17;;;;;;;10.54;85.91;101782.19;4975534;28;20039;-77
2021/10/01 02:35:28;;;;;;;4.60;1.30;;;;;;;10.48;86.67;101780.88;4975483;28;20049;-79
2021/10/01 02:37:54;;;;;;;5.32;1.05;;;;;;;10.47;85.82;101776.56;4959225;28;20038;-79
2021/10/01 02:40:20;;;;;;;6.10;0.85;;;;;;;10.49;87.41;101772.03;4959616;28;20715;-78
2021/10/01 02:42:46;;;;;;;6.38;1.02;;;;;;;10.47;86.04;101772.19;4975708;28;20045;-78
2021/10/01 02:45:12;;;;;;;5.82;1.00;;;;;;;10.46;86.59;101769.69;4975113;28;20037;-78
2021/10/01 02:47:40;;;;;;;3.28;1.10;;;;;;;10.50;85.75;101769.31;4966032;28;20084;-78
2021/10/01 02:50:08;;;;;;;6.18;1.45;;;;;;;10.50;86.05;101761.44;4965854;28;20803;-78
2021/10/01 02:52:55;;;;;;;4.28;0.90;;;;;;;10.50;86.34;101752.75;4959234;28;20077;-77
2021/10/01 02:55:42;;;;;;;6.97;1.17;;;;;;;10.41;87.00;101746.41;4974750;28;20045;-77
2021/10/01 02:58:35;;;;;;;8.63;0.95;;;;;;;10.43;87.29;101756.78;4959120;28;20035;-79
2021/10/01 03:01:06;;;;;;;6.28;1.20;;;;;;;10.42;86.19;101755.97;4975248;28;20547;-79
2021/10/01 03:03:37;;;;;;;7.50;1.20;;;;;;;10.46;85.72;101752.16;4958399;28;20037;-79
2021/10/01 03:06:04;;;;;;;4.50;1.00;;;;;;;10.35;85.89;101740.84;4990570;28;20038;-80
2021/10/01 03:08:31;;;;;;;9.35;1.42;;;;;;;10.44;86.03;101753.22;4958831;28;20173;-78
2021/10/01 03:10:58;;;;;;;7.45;1.10;;;;;;;10.41;85.80;101738.56;4974901;28;20281;-78
2021/10/01 03:13:26;;;;;;;6.40;1.02;;;;;;;10.33;87.11;101743.56;4974885;28;20108;-78
2021/10/01 03:15:55;;;;;;;5.28;1.13;;;;;;;10.31;86.14;101741.06;4951725;28;20121;-79
2021/10/01 03:18:22;;;;;;;3.92;1.00;;;;;;;10.26;86.61;101729.25;4974262;28;20038;-77
2021/10/01 03:20:49;;;;;;;4.70;1.10;;;;;;;10.35;85.74;101727.72;4957432;28;20097;-78
2021/10/01 03:23:17;;;;;;;4.10;1.00;;;;;;;10.32;86.39;101721.78;4982145;28;20049;-77
2021/10/01 03:25:43;;;;;;;5.43;1.00;;;;;;;10.25;86.73;101735.47;4974124;28;20030;-78
2021/10/01 03:28:09;;;;;;;4.25;1.20;;;;;;;10.24;86.37;101737.22;4974595;28;20393;-78
2021/10/01 03:30:35;;;;;;;5.78;1.20;;;;;;;10.18;86.37;101734.25;4974410;28;20080;-79
2021/10/01 03:33:01;;;;;;;4.35;1.00;;;;;;;10.10;87.36;101734.88;4974533;28;20026;-78
2021/10/01 03:35:26;;;;;;;6.57;1.20;;;;;;;9.98;87.37;101726.13;4958437;28;20034;-78
2021/10/01 03:37:53;;;;;;;5.20;1.10;;;;;;;9.99;87.72;101727.81;4974742;28;20116;-82
2021/10/01 03:40:21;;;;;;;5.75;0.82;;;;;;;9.94;87.38;101716.84;4959199;28;20520;-78
2021/10/01 03:42:47;;;;;;;4.50;1.10;;;;;;;9.94;88.05;101720.31;4976330;28;20076;-78
2021/10/01 03:45:18;;;;;;;4.55;1.30;;;;;;;9.88;88.19;101714.72;4963157;28;20052;-76
2021/10/01 03:47:44;;;;;;;6.20;1.08;;;;;;;9.80;88.68;101715.31;4985933;28;20587;-81
2021/10/01 03:50:09;;;;;;;3.80;1.05;;;;;;;9.84;87.01;101708.03;4970380;28;20480;-77
2021/10/01 03:52:35;;;;;;;3.95;0.90;;;;;;;9.79;87.96;101705.75;4978652;28;20037;-79
2021/10/01 03:55:04;;;;;;;3.10;1.00;;;;;;;9.81;87.32;101716.13;4946306;28;20041;-81
2021/10/01 03:57:31;;;;;;;3.95;0.90;;;;;;;9.87;87.07;101710.41;4977987;28;20034;-79
2021/10/01 03:59:56;;;;;;;2.92;1.10;;;;;;;9.87;86.38;101711.25;4978280;28;20034;-77
2021/10/01 04:02:22;;;;;;;6.15;1.35;;;;;;;9.80;87.98;101717.09;4995044;28;20037;-77
2021/10/01 04:04:47;;;;;;;3.80;0.82;;;;;;;9.80;87.72;101715.31;4978316;28;20042;-77
2021/10/01 04:07:13;;;;;;;8.55;1.13;;;;;;;9.75;88.17;101709.56;4946279;28;20088;-78
2021/10/01 04:09:38;;;;;;;5.63;1.10;;;;;;;9.77;87.74;101712.91;4962282;28;20042;-78
2021/10/01 04:12:04;;;;;;;5.38;1.33;;;;;;;9.75;88.03;101699.91;4994276;28;20176;-78
2021/10/01 04:14:33;;;;;;;3.38;1.02;;;;;;;9.85;87.73;101712.31;4961565;28;20038;-80
2021/10/01 04:16:58;;;;;;;5.70;1.00;;;;;;;9.83;87.89;101703.75;4977442;28;20034;-77
2021/10/01 04:19:24;;;;;;;6.75;1.38;;;;;;;9.75;88.10;101702.53;4978013;28;20035;-79
2021/10/01 04:21:50;;;;;;;7.70;1.00;;;;;;;9.83;87.76;101701.13;4961989;28;20703;-77
2021/10/01 04:24:16;;;;;;;5.32;0.82;;;;;;;9.85;88.20;101699.22;4966952;28;20501;-77
2021/10/01 04:26:50;;;;;;;3.33;0.95;;;;;;;9.87;87.28;101699.94;4977949;28;20566;-77
2021/10/01 04:29:15;;;;;;;2.97;0.98;;;;;;;9.84;87.36;101694.94;4961681;28;20077;-78
2021/10/01 04:31:41;;;;;;;5.15;1.02;;;;;;;9.79;87.45;101690.03;4978346;28;20038;-79
2021/10/01 04:34:07;;;;;;;3.65;1.23;;;;;;;9.86;87.18;101695.66;4977807;28;20504;-77
2021/10/01 04:36:34;;;;;;;6.63;0.93;;;;;;;9.80;86.50;101693.50;4960507;28;20120;-79
2021/10/01 04:39:01;;;;;;;5.15;1.15;;;;;;;9.82;87.04;101694.22;4962719;28;20053;-79
2021/10/01 04:41:28;;;;;;;3.80;0.95;;;;;;;9.90;87.36;101702.31;4963719;28;20177;-80
2021/10/01 04:43:55;;;;;;;2.85;1.00;;;;;;;9.94;85.99;101688.03;4962643;28;20118;-79
2021/10/01 04:46:37;;;;;;;4.20;0.90;;;;;;;9.93;86.13;101695.06;4978148;28;20030;-79
2021/10/01 04:49:03;;;;;;;3.00;0.77;;;;;;;9.91;85.71;101691.72;4961170;28;20049;-77
2021/10/01 04:51:29;;;;;;;3.50;0.82;;;;;;;9.97;86.66;101695.66;4976941;28;20035;-77
2021/10/01 04:53:55;;;;;;;7.82;1.15;;;;;;;10.00;85.51;101699.81;4984142;28;20042;-77
2021/10/01 04:56:21;;;;;;;7.60;1.23;;;;;;;9.98;85.73;101699.94;4977052;28;20038;-79
2021/10/01 04:58:48;;;;;;;4.72;1.00;;;;;;;9.96;86.72;101690.53;4993301;28;20045;-79
2021/10/01 05:01:20;;;;;;;2.47;0.85;;;;;;;10.01;86.14;101691.84;4982643;28;20042;-78
2021/10/01 05:04:11;;;;;;;3.83;1.10;;;;;;;9.94;86.43;101688.88;4993178;28;20145;-78
2021/10/01 05:06:37;;;;;;;3.72;0.98;;;;;;;9.96;87.15;101698.38;4992685;28;20447;-77
2021/10/01 05:09:21;;;;;;;5.13;1.02;;;;;;;9.96;86.91;101701.00;4979086;28;20034;-79
2021/10/01 05:12:06;;;;;;;6.90;0.90;;;;;;;10.03;86.29;101700.41;4990173;28;20038;-77
2021/10/01 05:14:50;;;;;;;4.50;1.02;;;;;;;10.01;85.66;101707.56;4976919;28;20039;-77
2021/10/01 05:17:36;;;;;;;7.18;1.00;;;;;;;10.01;85.90;101706.75;4981353;28;20082;-77
2021/10/01 05:20:20;;;;;;;8.35;1.10;;;;;;;9.91;86.00;101701.38;4976268;28;20086;-79
2021/10/01 05:22:51;;;;;;;3.33;0.88;;;;;;;9.96;86.70;101704.47;4961507;28;20133;-77
2021/10/01 05:25:17;;;;;;;6.28;1.02;;;;;;;9.97;86.08;101707.94;4976455;28;20832;-79
2021/10/01 05:27:42;;;;;;;3.70;0.82;;;;;;;10.03;85.10;101708.28;4975679;28;20046;-79
2021/10/01 05:30:09;;;;;;;7.78;1.13;;;;;;;10.05;85.68;101706.38;4992658;28;20034;-78
2021/10/01 05:32:35;;;;;;;2.22;0.82;;;;;;;10.05;85.78;101702.91;4976689;28;20500;-77
2021/10/01 05:35:01;;;;;;;6.38;1.30;;;;;;;10.05;85.34;101697.69;4992156;28;20042;-77
2021/10/01 05:37:26;;;;;;;6.20;1.20;;;;;;;10.11;86.27;101710.28;4976154;28;20681;-76
2021/10/01 05:39:52;;;;;;;7.68;1.25;;;;;;;10.10;84.87;101709.47;4954635;28;20096;-77
2021/10/01 05:42:17;;;;;;;2.38;1.10;;;;;;;10.08;85.39;101708.75;4976291;28;20452;-77
2021/10/01 05:44:43;;;;;;;4.85;1.00;;;;;;;10.06;86.33;101701.97;4975993;28;20026;-78
2021/10/01 05:47:29;;;;;;;5.15;1.00;;;;;;;10.05;85.79;101702.91;4958090;28;20038;-78
2021/10/01 05:50:31;;;;;;;6.95;1.23;;;;;;;10.07;86.34;101703.63;4991530;28;20054;-77
2021/10/01 05:53:35;;;;;;;6.65;1.23;;;;;;;10.02;85.00;101695.28;4955975;28;20524;-77
2021/10/01 05:56:19;;;;;;;;;;;;;;;10.03;85.98;101702.22;4972929;28;20050;-78
2021/10/01 05:59:13;;;;;;;5.88;1.27;;;;;;;10.06;86.09;101687.06;4940626;28;20013;-78
2021/10/01 06:01:39;;;;;;;5.65;1.05;;;;;;;10.06;86.14;101704.59;4956553;28;20137;-79
2021/10/01 06:04:06;;;;;;;4.90;1.15;;;;;;;9.98;86.59;101694.69;4985985;28;20453;-78
2021/10/01 06:06:32;;;;;;;4.70;1.27;;;;;;;9.97;86.26;101694.81;4962155;28;20488;-79
2021/10/01 06:08:58;;;;;;;5.93;1.30;;;;;;;10.05;84.99;101689.81;4959250;28;20030;-78
2021/10/01 06:11:23;;;;;;;5.13;1.15;;;;;;;10.07;85.70;101696.59;4971289;28;20030;-77
2021/10/01 06:13:49;;;;;;;5.00;1.02;;;;;;;10.10;86.43;101696.38;4975948;28;20039;-76
2021/10/01 06:16:14;;;;;;;4.47;1.23;;;;;;;10.16;86.17;101695.06;4953124;28;20485;-78
2021/10/01 06:18:40;;;;;;;4.78;1.35;;;;;;;10.17;85.26;101696.72;4970556;28;20475;-80
2021/10/01 06:21:05;;;;;;;3.83;0.98;;;;;;;10.20;85.79;101687.78;4975261;28;20046;-80
2021/10/01 06:23:34;;;;;;;4.68;1.23;;;;;;;10.27;85.08;101689.78;4975379;28;20520;-79
2021/10/01 06:26:04;;;;;;;4.45;1.10;;;;;;;10.28;84.63;101694.09;4974815;28;20042;-77
2021/10/01 06:28:30;;;;;;;5.65;1.50;;;;;;;10.29;85.62;101693.13;4958687;28;20045;-77
2021/10/01 06:30:58;;;;;;;5.28;1.00;;;;;;;10.32;86.08;101694.69;4959043;28;20030;-77
2021/10/01 06:33:25;;;;;;;3.33;1.10;;;;;;;10.31;86.74;101696.50;4975212;28;20049;-77
2021/10/01 06:35:51;;;;;;;3.20;1.00;;;;;;;10.39;85.36;101692.44;4974678;28;20049;-78
2021/10/01 06:38:17;;;;;;;6.68;1.27;;;;;;;10.43;84.81;101694.69;4974780;28;20119;-77
2021/10/01 06:40:42;;;;;;;2.78;1.10;;;;;;;10.45;84.72;101698.03;4975569;28;20488;-76
2021/10/01 06:43:10;;;;;;;5.47;1.45;;;;;;;10.51;84.95;101689.66;4958903;28;20030;-77
2021/10/01 06:45:37;;;;;;;3.72;1.20;;;;;;;10.59;83.98;101693.47;4958953;28;20771;-80
2021/10/01 07:35:07;;;;;;;3.22;1.00;;;;;;;11.18;83.25;101685.13;4973997;28;20038;-77
2021/10/01 08:18:57;;;;;;;4.35;1.00;;;;;;;11.46;83.22;101688.06;4966351;28;20101;-78
2021/10/01 08:20:46;;;;;;;3.28;1.17;;;;;;;11.55;82.26;101684.66;4973032;28;20086;-80
2021/10/01 08:23:12;;;;;;;6.45;1.00;;;;;;;11.61;82.82;101685.94;4958250;28;20038;-79
2021/10/01 08:25:38;;;;;;;6.00;1.10;;;;;;;11.60;81.92;101684.25;4956290;28;20100;-77
2021/10/01 08:28:05;;;;;;;3.00;0.73;;;;;;;11.67;81.68;101686.25;4974393;28;20485;-78
2021/10/01 08:30:50;;;;;;;21.30;4.07;;;;;;;11.73;83.61;101684.06;4961940;28;20042;-79
2021/10/01 08:33:16;;;;;;;5.95;1.20;;;;;;;11.78;82.03;101681.88;4977771;28;20573;-79
2021/10/01 08:35:41;;;;;;;6.45;0.90;;;;;;;11.84;80.50;101673.47;4977613;28;20053;-79
2021/10/01 08:38:07;;;;;;;2.05;1.00;;;;;;;11.98;80.63;101678.41;4976894;28;20050;-78
2021/10/01 08:40:33;;;;;;;7.03;1.00;;;;;;;12.03;79.98;101670.09;4961201;28;20038;-79
2021/10/01 08:42:59;;;;;;;2.88;0.90;;;;;;;12.20;80.69;101681.78;4977920;28;20030;-78
2021/10/01 08:45:26;;;;;;;3.58;0.88;;;;;;;12.41;80.29;101682.53;4976194;28;20038;-78
2021/10/01 08:47:52;;;;;;;2.60;0.80;;;;;;;12.75;79.85;101679.53;4960907;28;20050;-79
2021/10/01 08:50:20;;;;;;;4.30;0.85;;;;;;;12.87;77.29;101660.97;4976965;28;20049;-78
2021/10/01 08:52:47;;;;;;;3.72;0.80;;;;;;;13.08;76.03;101666.91;4976834;28;20039;-77
2021/10/01 08:55:14;;;;;;;4.57;0.93;;;;;;;13.11;75.66;101658.72;4961151;28;20045;-77
2021/10/01 08:57:40;;;;;;;7.95;1.10;;;;;;;13.21;75.61;101656.91;4961211;28;20447;-78
2021/10/01 09:00:13;;;;;;;3.00;1.02;;;;;;;13.25;76.33;101654.81;4977117;28;20086;-79
2021/10/01 09:02:39;;;;;;;4.45;1.30;;;;;;;13.24;75.32;101645.22;4977924;28;20038;-79
2021/10/01 09:05:06;;;;;;;5.50;0.70;;;;;;;13.27;76.58;101655.50;4981378;28;20034;-79
2021/10/01 09:07:31;;;;;;;7.75;1.20;;;;;;;13.32;77.40;101653.31;4977376;28;20061;-79
2021/10/01 09:09:57;;;;;;;3.22;1.08;;;;;;;13.47;74.43;101647.56;4960942;28;20073;-78
2021/10/01 09:12:23;;;;;;;4.28;1.02;;;;;;;13.46;75.37;101652.03;4961028;28;20085;-78
2021/10/01 09:14:54;;;;;;;4.53;1.33;;;;;;;13.55;76.26;101640.63;4977653;28;20031;-80
2021/10/01 09:17:28;;;;;;;5.10;1.15;;;;;;;13.75;75.68;101638.75;4980265;28;20034;-79
2021/10/01 09:19:54;;;;;;;4.40;1.20;;;;;;;13.92;74.55;101639.78;4960350;28;20034;-80
2021/10/01 09:22:38;;;;;;;3.55;1.00;;;;;;;14.15;73.36;101631.47;4947778;28;20124;-80
2021/10/01 09:25:21;;;;;;;3.78;0.90;;;;;;;14.26;72.36;101633.03;4977768;28;20646;-78
2021/10/01 09:27:51;;;;;;;4.82;1.00;;;;;;;14.45;72.87;101635.56;4968843;28;20061;-77
2021/10/01 09:30:21;;;;;;;4.38;1.10;;;;;;;14.56;71.89;101623.94;4944569;28;20042;-79
2021/10/01 09:33:07;;;;;;;5.85;1.13;;;;;;;14.70;72.37;101628.72;4960620;28;20026;-76
2021/10/01 09:35:34;;;;;;;4.90;1.02;;;;;;;14.65;70.55;101630.97;4976826;28;20121;-80
2021/10/01 09:38:11;;;;;;;7.85;0.80;;;;;;;14.61;71.36;101627.00;4960091;28;20045;-78
2021/10/01 09:40:37;;;;;;;7.68;1.20;;;;;;;14.59;72.29;101616.56;4965356;28;20401;-81
2021/10/01 09:43:27;;;;;;;4.32;0.80;;;;;;;14.75;71.87;101612.44;4979617;28;20053;-79
2021/10/01 09:46:07;;;;;;;1.77;0.77;;;;;;;14.91;69.49;101609.91;4974518;28;20038;-80
2021/10/01 09:48:38;;;;;;;4.80;0.95;;;;;;;15.03;71.55;101607.00;4985154;28;20042;-81
2021/10/01 09:51:12;;;;;;;4.65;1.25;;;;;;;15.23;70.54;101607.66;4960982;28;20034;-80
2021/10/01 09:53:48;;;;;;;7.80;1.20;;;;;;;15.33;68.77;101614.50;4977152;28;20045;-80
2021/10/01 09:56:28;;;;;;;3.03;0.98;;;;;;;15.16;65.92;101610.91;4975495;28;20165;-81
2021/10/01 09:59:04;;;;;;;2.28;0.80;;;;;;;15.20;69.46;101598.22;4960659;28;20038;-78
2021/10/01 10:01:30;;;;;;;7.55;1.10;;;;;;;15.43;68.27;101600.34;4992726;28;20041;-76
2021/10/01 10:03:55;;;;;;;7.25;0.98;;;;;;;15.49;67.15;101591.78;4962027;28;20409;-80
2021/10/01 10:06:21;;;;;;;8.98;0.90;;;;;;;15.61;66.77;101601.06;4978397;28;20088;-83
2021/10/01 10:08:47;;;;;;;6.30;1.10;;;;;;;15.77;66.52;101603.81;4961263;28;20030;-79
2021/10/01 10:11:19;;;;;;;2.38;0.70;;;;;;;15.93;68.95;101604.84;4977838;28;20038;-78
2021/10/01 10:13:53;;;;;;;3.70;0.88;;;;;;;15.66;66.23;101592.66;4985099;28;20030;-79
2021/10/01 10:16:28;;;;;;;3.05;0.73;;;;;;;15.69;68.00;101587.03;4976803;28;20038;-78
2021/10/01 10:19:20;;;;;;;4.55;0.90;;;;;;;15.76;66.93;101588.94;4975657;28;20162;-79
2021/10/01 10:21:46;;;;;;;3.43;1.10;;;;;;;16.02;68.05;101588.00;4959929;28;20121;-79
2021/10/01 10:24:12;;;;;;;2.30;0.68;;;;;;;16.19;66.64;101590.69;4976052;28;20276;-78
2021/10/01 10:26:37;;;;;;;3.35;0.75;;;;;;;16.03;65.18;101587.03;4959370;28;20125;-79
2021/10/01 10:29:05;;;;;;;4.78;1.00;;;;;;;15.90;65.76;101574.25;4976500;28;20053;-81
2021/10/01 10:31:34;;;;;;;6.50;0.80;;;;;;;15.74;64.96;101571.56;4959430;28;20030;-77
2021/10/01 10:34:00;;;;;;;3.35;0.80;;;;;;;15.93;65.83;101567.81;4959590;28;20057;-78
2021/10/01 10:36:48;;;;;;;7.57;1.00;;;;;;;16.13;65.68;101569.19;4959278;28;20504;-77
2021/10/01 10:39:15;;;;;;;4.38;1.10;;;;;;;16.25;66.24;101566.22;4932760;28;20030;-79
2021/10/01 10:41:45;;;;;;;4.13;0.90;;;;;;;16.29;66.37;101578.97;4975615;28;20045;-77
2021/10/01 10:44:13;;;;;;;7.05;1.20;;;;;;;16.22;67.79;101561.25;4960014;28;20026;-76
2021/10/01 10:46:44;;;;;;;6.03;1.35;;;;;;;16.17;66.33;101563.56;4975424;28;20038;-79
2021/10/01 10:49:25;;;;;;;3.65;1.17;;;;;;;16.15;67.23;101558.44;4975258;28;20403;-79
2021/10/01 10:51:57;;;;;;;5.05;1.10;;;;;;;16.11;67.07;101559.75;4966779;28;20516;-77
2021/10/01 10:54:23;;;;;;;6.38;1.05;;;;;;;16.07;65.79;101563.72;4975403;28;20129;-80
2021/10/01 10:57:28;;;;;;;4.68;0.88;;;;;;;16.14;66.54;101562.91;4975186;28;20196;-77
2021/10/01 11:00:04;;;;;;;3.47;0.80;;;;;;;16.30;69.98;101563.91;4943340;28;20583;-78
2021/10/01 11:02:41;;;;;;;3.08;0.73;;;;;;;16.45;66.94;101562.28;4975725;28;20160;-80
2021/10/01 11:05:24;;;;;;;2.25;0.60;;;;;;;16.44;67.47;101559.78;4975968;28;20070;-78
2021/10/01 11:07:56;;;;;;;7.10;0.90;;;;;;;16.36;66.41;101552.66;4975247;28;20073;-78
2021/10/01 11:10:43;;;;;;;6.40;1.10;;;;;;;16.53;66.80;101556.13;4975710;28;20121;-79
2021/10/01 11:13:26;;;;;;;5.63;0.80;;;;;;;16.71;66.62;101555.97;4976055;28;20141;-79
2021/10/01 11:16:07;;;;;;;3.17;0.80;;;;;;;16.77;64.58;101544.72;4981598;28;20038;-77
2021/10/01 11:18:34;;;;;;;4.45;1.00;;;;;;;16.93;65.52;101546.53;4990831;28;20041;-80
2021/10/01 11:21:01;;;;;;;4.22;1.10;;;;;;;17.03;65.64;101541.06;4967931;28;20149;-80
2021/10/01 11:23:27;;;;;;;3.28;0.70;;;;;;;17.14;65.30;101532.75;4963970;28;20034;-78
2021/10/01 11:25:52;;;;;;;3.63;0.90;;;;;;;17.21;61.84;101535.53;4993160;28;20505;-80
2021/10/01 11:28:30;;;;;;;3.95;0.98;;;;;;;17.26;61.57;101523.41;4976394;28;20416;-79
2021/10/01 11:30:56;;;;;;;5.97;1.10;;;;;;;17.15;59.96;101521.13;4985368;28;20049;-79
2021/10/01 11:33:22;;;;;;;4.82;0.80;;;;;;;17.23;62.05;101521.09;4977564;28;20038;-79
2021/10/01 11:35:53;;;;;;;7.85;1.30;;;;;;;17.47;64.82;101525.47;4994413;28;20046;-81
2021/10/01 11:38:29;;;;;;;4.57;0.88;;;;;;;17.75;63.47;101519.69;4960904;28;20564;-80
2021/10/01 11:41:09;;;;;;;4.03;1.15;;;;;;;17.83;58.63;101522.28;4978527;28;20042;-80
2021/10/01 11:43:55;;;;;;;3.50;0.80;;;;;;;17.72;61.16;101522.69;4984177;28;20173;-81
2021/10/01 11:46:30;;;;;;;4.47;0.70;;;;;;;17.55;62.40;101507.88;4981843;28;20631;-81
2021/10/01 11:48:56;;;;;;;5.88;0.90;;;;;;;17.68;60.44;101519.56;4976966;28;20264;-77
2021/10/01 11:51:21;;;;;;;3.03;1.20;;;;;;;17.62;61.11;101511.47;4999789;28;20030;-74
2021/10/01 11:53:47;;;;;;;4.07;1.00;;;;;;;17.70;61.29;101514.09;4983371;28;20058;-76
2021/10/01 11:56:13;;;;;;;3.72;1.00;;;;;;;17.66;61.06;101502.16;5000348;28;20049;-78
2021/10/01 11:58:39;;;;;;;5.63;1.02;;;;;;;17.50;61.54;101500.44;4978035;28;20101;-77
2021/10/01 12:01:16;;;;;;;2.38;0.73;;;;;;;17.68;60.32;101506.28;4975625;28;20034;-79
2021/10/01 12:03:58;;;;;;;3.80;0.80;;;;;;;17.88;60.83;101512.00;4963024;28;20034;-81
2021/10/01 12:06:25;;;;;;;4.05;1.20;;;;;;;17.88;60.75;101504.06;4979603;28;20123;-82
2021/10/01 12:08:58;;;;;;;3.85;0.82;;;;;;;17.99;59.25;101504.63;4971168;28;20476;-80
2021/10/01 12:11:30;;;;;;;5.25;1.05;;;;;;;17.92;59.13;101495.75;4994999;28;20497;-80
2021/10/01 12:14:10;;;;;;;5.18;1.10;;;;;;;17.69;60.34;101494.69;4958086;28;20033;-79
2021/10/01 12:16:38;;;;;;;5.05;1.20;;;;;;;17.44;59.56;101490.50;4971987;28;20046;-81
2021/10/01 12:19:05;;;;;;;7.20;0.88;;;;;;;17.39;63.48;101498.19;4962590;28;20035;-80
2021/10/01 12:21:32;;;;;;;7.88;1.10;;;;;;;17.63;62.28;101497.19;4978361;28;20496;-77
2021/10/01 12:24:14;;;;;;;2.55;0.80;;;;;;;17.96;58.30;101487.25;4946400;28;20031;-80
2021/10/01 12:26:41;;;;;;;4.72;0.95;;;;;;;18.16;60.74;101471.66;4962267;28;20493;-80
2021/10/01 12:29:16;;;;;;;4.20;0.73;;;;;;;18.43;58.82;101475.56;4962525;28;20835;-78
2021/10/01 12:31:54;;;;;;;3.92;1.05;;;;;;;18.80;57.45;101467.75;4962435;28;20133;-81
2021/10/01 12:34:25;;;;;;;3.67;0.68;;;;;;;18.96;58.06;101461.44;4978436;28;20069;-80
2021/10/01 12:36:57;;;;;;;3.40;0.80;;;;;;;19.13;55.77;101459.41;4977920;28;20077;-80
2021/10/01 12:39:25;;;;;;;6.50;0.98;;;;;;;19.28;54.32;101457.53;4978433;28;20097;-77
2021/10/01 12:41:55;;;;;;;4.60;0.95;;;;;;;19.30;55.71;101463.50;4962049;28;20074;-77
2021/10/01 12:44:21;;;;;;;2.78;0.85;;;;;;;19.00;55.27;101452.06;4961663;28;20038;-81
2021/10/01 12:46:51;;;;;;;6.70;1.00;;;;;;;18.52;58.42;101447.09;4950531;28;20138;-81
2021/10/01 12:49:26;;;;;;;4.22;0.90;;;;;;;18.39;57.78;101449.56;4977337;28;20048;-77
2021/10/01 12:52:14;;;;;;;3.92;0.70;;;;;;;18.29;60.42;101444.50;4945975;28;20044;-78
2021/10/01 12:54:49;;;;;;;4.82;0.90;;;;;;;18.24;58.58;101447.69;4961813;28;20065;-80
2021/10/01 12:57:37;;;;;;;5.90;1.45;;;;;;;18.51;58.42;101449.94;4977460;28;20045;-81
2021/10/01 13:00:02;;;;;;;2.35;0.70;;;;;;;18.29;60.22;101445.34;4945446;28;20073;-78
2021/10/01 13:02:39;;;;;;;4.78;0.98;;;;;;;17.86;58.39;101449.50;4945564;28;20069;-80
2021/10/01 13:05:07;;;;;;;2.67;0.77;;;;;;;17.56;59.89;101445.88;4974580;28;20045;-79
2021/10/01 13:07:39;;;;;;;5.25;0.93;;;;;;;17.47;61.86;101443.25;4961471;28;20045;-77
2021/10/01 13:10:20;;;;;;;3.22;0.93;;;;;;;17.43;61.89;101449.09;4978557;28;20140;-81
2021/10/01 13:12:57;;;;;;;4.07;0.88;;;;;;;17.38;62.51;101452.25;4961896;28;20477;-80